createdAt,value
2023-01-29T00:02:07.243Z,97162.63
2023-01-29T00:06:24.453Z,97150.91
2023-01-29T00:10:36.888Z,97147.53
2023-01-29T00:14:49.409Z,97154.44
2023-01-29T00:19:03.351Z,97150.94
2023-01-29T00:23:16.294Z,97165.66
2023-01-29T00:27:28.733Z,97167.56
2023-01-29T00:31:41.251Z,97169.69
2023-01-29T00:35:53.779Z,97163.00
2023-01-29T00:40:07.093Z,97173.97
2023-01-29T00:44:38.569Z,97170.78
2023-01-29T00:49:00.911Z,97159.03
2023-01-29T00:53:23.518Z,97170.75
2023-01-29T00:57:37.223Z,97158.22
2023-01-29T01:02:08.406Z,97158.53
2023-01-29T01:06:20.851Z,97171.66
2023-01-29T01:10:34.349Z,97169.03
2023-01-29T01:14:56.218Z,97167.50
2023-01-29T01:19:08.677Z,97164.44
2023-01-29T01:23:21.184Z,97170.63
2023-01-29T01:27:38.636Z,97168.72
2023-01-29T01:31:51.569Z,97176.88
2023-01-29T01:36:10.532Z,97178.41
2023-01-29T01:40:25.738Z,97181.81
2023-01-29T01:45:06.199Z,97174.50
2023-01-29T01:49:22.467Z,97179.19
2023-01-29T01:53:47.643Z,97178.81
2023-01-29T01:58:09.873Z,97178.06
2023-01-29T02:02:42.011Z,97159.69
2023-01-29T02:07:14.558Z,97173.34
2023-01-29T02:11:27.056Z,97180.34
2023-01-29T02:15:42.711Z,97177.97
2023-01-29T02:20:40.382Z,97180.44
2023-01-29T02:25:24.731Z,97180.78
2023-01-29T02:30:36.368Z,97174.22
2023-01-29T02:35:18.264Z,97177.34
2023-01-29T02:40:06.074Z,97171.78
2023-01-29T02:44:42.679Z,97166.19
2023-01-29T02:49:11.469Z,97155.50
2023-01-29T02:53:33.510Z,97147.91
2023-01-29T02:57:49.837Z,97149.78
2023-01-29T03:02:13.525Z,97144.56
2023-01-29T03:06:36.931Z,97156.31
2023-01-29T03:11:06.936Z,97147.75
2023-01-29T03:15:29.279Z,97149.91
2023-01-29T03:19:47.802Z,97153.66
2023-01-29T03:24:19.634Z,97165.41
2023-01-29T03:28:52.923Z,97159.41
2023-01-29T03:33:09.332Z,97162.41
2023-01-29T03:37:37.027Z,97159.75
2023-01-29T03:47:15.668Z,97142.72
2023-01-29T03:51:38.583Z,97141.06
2023-01-29T03:56:23.101Z,97130.63
2023-01-29T04:00:43.394Z,97126.75
2023-01-29T04:05:02.233Z,97123.97
2023-01-29T04:09:24.250Z,97130.69
2023-01-29T04:13:39.677Z,97132.25
2023-01-29T04:17:53.953Z,97136.50
2023-01-29T04:22:37.673Z,97130.75
2023-01-29T04:27:08.826Z,97144.72
2023-01-29T04:32:05.549Z,97138.16
2023-01-29T04:36:22.617Z,97136.44
2023-01-29T04:41:00.432Z,97155.50
2023-01-29T04:45:29.624Z,97139.53
2023-01-29T04:50:18.384Z,97135.44
2023-01-29T04:54:55.626Z,97123.72
2023-01-29T04:59:14.001Z,97122.81
2023-01-29T05:03:29.093Z,97132.75
2023-01-29T05:07:44.343Z,97132.94
2023-01-29T05:11:57.436Z,97146.97
2023-01-29T05:16:27.420Z,97144.25
2023-01-29T05:20:42.477Z,97147.41
2023-01-29T05:24:54.909Z,97146.38
2023-01-29T05:29:07.338Z,97164.59
2023-01-29T05:33:32.399Z,97178.81
2023-01-29T05:37:45.281Z,97163.28
2023-01-29T05:41:57.733Z,97168.28
2023-01-29T05:46:10.218Z,97158.56
2023-01-29T05:50:22.691Z,97177.84
2023-01-29T05:54:35.106Z,97166.84
2023-01-29T05:58:47.523Z,97178.91
2023-01-29T06:03:00.092Z,97166.44
2023-01-29T06:07:12.566Z,97149.56
2023-01-29T06:11:25.679Z,97167.19
2023-01-29T06:15:41.541Z,97164.53
2023-01-29T06:19:53.928Z,97150.63
2023-01-29T06:24:06.788Z,97164.34
2023-01-29T06:28:19.240Z,97154.22
2023-01-29T06:32:32.505Z,97156.22
2023-01-29T06:36:44.938Z,97172.16
2023-01-29T06:40:57.754Z,97170.28
2023-01-29T06:45:11.183Z,97177.13
2023-01-29T06:49:25.112Z,97153.91
2023-01-29T06:53:47.580Z,97169.06
2023-01-29T06:58:12.767Z,97179.44
2023-01-29T07:02:25.193Z,97174.91
2023-01-29T07:06:38.028Z,97162.59
2023-01-29T07:10:51.133Z,97171.03
2023-01-29T07:15:10.809Z,97163.56
2023-01-29T07:19:24.699Z,97149.34
2023-01-29T07:23:37.266Z,97151.19
2023-01-29T07:27:50.370Z,97152.41
2023-01-29T07:32:04.220Z,97148.63
2023-01-29T07:36:16.867Z,97136.97
2023-01-29T07:40:29.302Z,97137.44
2023-01-29T07:44:41.724Z,97135.53
2023-01-29T07:48:54.151Z,97126.59
2023-01-29T07:53:07.435Z,97133.47
2023-01-29T07:57:19.940Z,97127.47
2023-01-29T08:01:32.416Z,97138.47
2023-01-29T08:05:45.981Z,97129.47
2023-01-29T08:09:58.446Z,97129.50
2023-01-29T08:14:11.342Z,97134.69
2023-01-29T08:18:23.836Z,97136.63
2023-01-29T08:22:36.265Z,97146.69
2023-01-29T08:26:58.925Z,97143.50
2023-01-29T08:31:21.373Z,97139.84
2023-01-29T08:35:33.865Z,97157.88
2023-01-29T08:39:56.347Z,97154.63
2023-01-29T08:44:18.895Z,97169.22
2023-01-29T08:48:31.566Z,97184.34
2023-01-29T08:52:45.458Z,97165.97
2023-01-29T08:56:59.386Z,97184.81
2023-01-29T09:01:15.881Z,97202.50
2023-01-29T09:05:29.546Z,97174.44
2023-01-29T09:09:42.030Z,97181.44
2023-01-29T09:13:54.456Z,97207.66
2023-01-29T09:18:07.233Z,97193.63
2023-01-29T09:22:29.850Z,97210.91
2023-01-29T09:26:42.422Z,97215.84
2023-01-29T09:30:55.024Z,97208.25
2023-01-29T09:35:08.139Z,97214.69
2023-01-29T09:39:20.625Z,97213.28
2023-01-29T09:44:05.756Z,97220.88
2023-01-29T09:48:18.926Z,97230.25
2023-01-29T09:52:37.142Z,97227.66
2023-01-29T09:56:54.672Z,97228.66
2023-01-29T10:01:56.963Z,97223.88
2023-01-29T10:06:53.011Z,97209.16
2023-01-29T10:11:22.921Z,97214.72
2023-01-29T10:16:15.869Z,97220.81
2023-01-29T10:21:16.750Z,97196.00
2023-01-29T10:25:29.279Z,97201.91
2023-01-29T10:29:44.416Z,97217.38
2023-01-29T10:34:03.027Z,97214.31
2023-01-29T10:38:46.495Z,97206.44
2023-01-29T10:43:13.280Z,97212.84
2023-01-29T10:47:45.739Z,97188.13
2023-01-29T10:52:23.143Z,97207.44
2023-01-29T10:57:17.303Z,97203.47
2023-01-29T11:01:29.888Z,97167.84
2023-01-29T11:06:08.825Z,97198.16
2023-01-29T11:10:36.691Z,97182.63
2023-01-29T11:14:56.015Z,97186.03
2023-01-29T11:19:08.351Z,97186.56
2023-01-29T11:23:31.035Z,97178.44
2023-01-29T11:27:56.606Z,97175.13
2023-01-29T11:32:31.294Z,97161.81
2023-01-29T11:37:03.374Z,97161.88
2023-01-29T11:41:23.160Z,97150.44
2023-01-29T11:45:41.143Z,97130.63
2023-01-29T11:50:00.675Z,97120.88
2023-01-29T11:54:18.894Z,97091.44
2023-01-29T11:58:35.576Z,97093.38
2023-01-29T12:02:55.460Z,97076.63
2023-01-29T12:07:15.622Z,97078.22
2023-01-29T12:11:33.517Z,97075.03
2023-01-29T12:15:47.182Z,97096.69
2023-01-29T12:20:06.041Z,97092.94
2023-01-29T12:24:39.358Z,97099.03
2023-01-29T12:29:25.718Z,97102.75
2023-01-29T12:33:50.613Z,97092.31
2023-01-29T12:38:19.366Z,97083.44
2023-01-29T12:42:45.728Z,97077.16
2023-01-29T12:47:03.241Z,97082.66
2023-01-29T12:51:57.778Z,97050.28
2023-01-29T12:56:24.000Z,97055.31
2023-01-29T13:00:41.091Z,97041.31
2023-01-29T13:05:30.915Z,97032.69
2023-01-29T13:10:05.601Z,97019.88
2023-01-29T13:14:25.047Z,97013.66
2023-01-29T13:19:01.579Z,97013.88
2023-01-29T13:23:42.951Z,97010.56
2023-01-29T13:27:56.457Z,97005.97
2023-01-29T13:32:12.613Z,96998.47
2023-01-29T13:36:30.000Z,96994.63
2023-01-29T13:40:51.581Z,96993.47
2023-01-29T13:45:08.056Z,96987.59
2023-01-29T13:49:29.584Z,96990.81
2023-01-29T13:53:44.220Z,96981.88
2023-01-29T13:57:58.739Z,96984.97
2023-01-29T14:02:25.438Z,96972.81
2023-01-29T14:06:43.610Z,96966.28
2023-01-29T14:11:16.823Z,96969.38
2023-01-29T14:15:37.529Z,96967.44
2023-01-29T14:19:52.809Z,96970.59
2023-01-29T14:24:22.849Z,96970.88
2023-01-29T14:28:36.142Z,96980.84
2023-01-29T14:32:50.957Z,96996.72
2023-01-29T14:37:16.498Z,97001.34
2023-01-29T14:41:35.262Z,96999.34
2023-01-29T14:45:49.730Z,96992.38
2023-01-29T14:50:29.224Z,96998.41
2023-01-29T14:54:42.723Z,96987.13
2023-01-29T14:59:14.137Z,96975.31
2023-01-29T15:03:50.462Z,96992.09
2023-01-29T15:08:24.587Z,96984.28
2023-01-29T15:12:51.145Z,96970.69
2023-01-29T15:17:10.380Z,96978.31
2023-01-29T15:21:23.042Z,96959.97
2023-01-29T15:25:38.886Z,96989.59
2023-01-29T15:30:00.254Z,96984.19
2023-01-29T15:34:12.847Z,96988.03
2023-01-29T15:38:27.527Z,96974.38
2023-01-29T15:42:49.393Z,96992.59
2023-01-29T15:47:02.875Z,96990.66
2023-01-29T15:51:21.114Z,96981.59
2023-01-29T15:55:34.500Z,96969.88
2023-01-29T15:59:59.777Z,96993.31
2023-01-29T16:04:23.262Z,96976.22
2023-01-29T16:08:36.897Z,96982.00
2023-01-29T16:12:56.285Z,96991.69
2023-01-29T16:17:41.997Z,96994.78
2023-01-29T16:21:59.018Z,97005.69
2023-01-29T16:26:19.910Z,96995.19
2023-01-29T16:30:42.497Z,96988.13
2023-01-29T16:35:00.431Z,97011.00
2023-01-29T16:39:24.148Z,97014.94
2023-01-29T16:43:42.448Z,96999.44
2023-01-29T16:48:23.593Z,97029.09
2023-01-29T16:52:36.202Z,97027.91
2023-01-29T16:56:52.325Z,97023.53
2023-01-29T17:01:09.326Z,97030.47
2023-01-29T17:05:38.043Z,97036.72
2023-01-29T17:10:04.076Z,97029.78
2023-01-29T17:14:20.767Z,97031.28
2023-01-29T17:18:43.185Z,97034.56
2023-01-29T17:22:56.179Z,97033.25
2023-01-29T17:27:09.637Z,97038.63
2023-01-29T17:31:23.122Z,97036.28
2023-01-29T17:35:35.666Z,97030.81
2023-01-29T17:39:51.421Z,97042.41
2023-01-29T17:44:04.709Z,97043.84
2023-01-29T17:48:26.145Z,97035.00
2023-01-29T17:52:38.630Z,97030.69
2023-01-29T17:56:51.725Z,97035.88
2023-01-29T18:01:04.246Z,97016.38
2023-01-29T18:05:17.912Z,97034.34
2023-01-29T18:09:31.919Z,97025.22
2023-01-29T18:13:45.016Z,97038.88
2023-01-29T18:17:57.451Z,97022.91
2023-01-29T18:22:19.982Z,97017.81
2023-01-29T18:26:32.479Z,97017.91
2023-01-29T18:30:55.224Z,96998.09
2023-01-29T18:35:08.896Z,97016.03
2023-01-29T18:39:31.340Z,97015.16
2023-01-29T18:43:44.948Z,97017.03
2023-01-29T18:47:58.518Z,97021.00
2023-01-29T18:52:11.072Z,97017.44
2023-01-29T18:56:23.615Z,97013.97
2023-01-29T19:00:36.090Z,97011.41
2023-01-29T19:04:48.577Z,97011.81
2023-01-29T19:09:01.021Z,97023.41
2023-01-29T19:13:13.805Z,97004.38
2023-01-29T19:17:27.156Z,97009.09
2023-01-29T19:21:54.405Z,97015.19
2023-01-29T19:26:07.213Z,97005.72
2023-01-29T19:30:29.779Z,97003.19
2023-01-29T19:34:42.220Z,97000.34
2023-01-29T19:38:54.733Z,97015.59
2023-01-29T19:43:07.279Z,96985.41
2023-01-29T19:47:19.955Z,97005.28
2023-01-29T19:51:32.510Z,96988.09
2023-01-29T19:55:45.048Z,96997.25
2023-01-29T19:59:58.866Z,96994.00
2023-01-29T20:09:06.816Z,96982.53
2023-01-29T20:13:19.679Z,96977.75
2023-01-29T20:17:32.116Z,96974.91
2023-01-29T20:21:47.954Z,96988.63
2023-01-29T20:26:01.444Z,96984.31
2023-01-29T20:30:14.233Z,96983.00
2023-01-29T20:34:27.178Z,96975.03
2023-01-29T20:38:49.650Z,96971.38
2023-01-29T20:43:02.181Z,96978.00
2023-01-29T20:47:14.730Z,96979.47
2023-01-29T20:51:28.440Z,96975.59
2023-01-29T20:55:41.524Z,96957.28
2023-01-29T20:59:58.424Z,96972.69
2023-01-29T21:04:10.821Z,96958.88
2023-01-29T21:08:23.288Z,96968.13
2023-01-29T21:12:36.392Z,96966.53
2023-01-29T21:16:48.930Z,96964.22
2023-01-29T21:21:07.582Z,96970.69
2023-01-29T21:25:24.363Z,96957.50
2023-01-29T21:29:37.836Z,96973.25
2023-01-29T21:33:50.409Z,96968.34
2023-01-29T21:38:03.062Z,96976.75
2023-01-29T21:42:34.162Z,96976.03
2023-01-29T21:46:46.840Z,96961.94
2023-01-29T21:50:59.323Z,96961.97
2023-01-29T21:55:12.551Z,96967.69
2023-01-29T21:59:24.992Z,96959.56
2023-01-29T22:03:37.429Z,96948.53
2023-01-29T22:07:50.375Z,96959.47
2023-01-29T22:12:12.931Z,96947.75
2023-01-29T22:16:25.397Z,96948.53
2023-01-29T22:20:37.874Z,96941.19
2023-01-29T22:24:51.619Z,96941.50
2023-01-29T22:29:04.309Z,96940.22
2023-01-29T22:33:16.787Z,96908.19
2023-01-29T22:37:29.265Z,96915.44
2023-01-29T22:41:51.736Z,96900.69
2023-01-29T22:46:13.357Z,96899.06
2023-01-29T22:50:25.832Z,96879.28
2023-01-29T22:54:40.408Z,96893.28
2023-01-29T22:58:59.868Z,96886.47
2023-01-29T23:03:12.415Z,96870.50
2023-01-29T23:07:24.874Z,96874.31
2023-01-29T23:11:37.319Z,96857.16
2023-01-29T23:16:00.449Z,96852.59
2023-01-29T23:20:13.525Z,96858.13
2023-01-29T23:24:25.920Z,96850.41
2023-01-29T23:28:38.345Z,96849.06
2023-01-29T23:33:00.752Z,96843.00
2023-01-29T23:37:14.263Z,96852.06
2023-01-29T23:41:26.776Z,96846.97
2023-01-29T23:45:39.204Z,96854.06
2023-01-29T23:49:55.557Z,96827.06
2023-01-29T23:54:08.157Z,96836.00
2023-01-29T23:58:31.117Z,96834.06
